sensor_id;sensor_type;location;lat;lon;timestamp;pressure;altitude;pressure_sealevel;temperature;humidity
45991;BME280;31721;41.740;-88.000;2023-04-22T00:01:14;98387.71;;;14.74;29.31
45991;BME280;31721;41.740;-88.000;2023-04-22T00:03:41;98393.72;;;14.64;29.48
45991;BME280;31721;41.740;-88.000;2023-04-22T00:06:10;98402.02;;;14.50;29.32
45991;BME280;31721;41.740;-88.000;2023-04-22T00:08:39;98405.91;;;14.40;29.57
45991;BME280;31721;41.740;-88.000;2023-04-22T00:11:06;98410.41;;;14.60;29.41
45991;BME280;31721;41.740;-88.000;2023-04-22T00:13:34;98410.99;;;14.35;29.72
45991;BME280;31721;41.740;-88.000;2023-04-22T00:16:02;98414.47;;;14.15;29.70
45991;BME280;31721;41.740;-88.000;2023-04-22T00:18:32;98419.36;;;14.11;30.20
45991;BME280;31721;41.740;-88.000;2023-04-22T00:21:01;98415.25;;;13.78;29.66
45991;BME280;31721;41.740;-88.000;2023-04-22T00:23:29;98418.92;;;13.90;29.89
45991;BME280;31721;41.740;-88.000;2023-04-22T00:25:57;98424.36;;;13.91;29.91
45991;BME280;31721;41.740;-88.000;2023-04-22T00:28:26;98426.78;;;13.90;30.27
45991;BME280;31721;41.740;-88.000;2023-04-22T00:30:54;98430.89;;;13.82;30.10
45991;BME280;31721;41.740;-88.000;2023-04-22T00:33:22;98434.29;;;13.81;30.71
45991;BME280;31721;41.740;-88.000;2023-04-22T00:35:51;98446.63;;;13.55;30.19
45991;BME280;31721;41.740;-88.000;2023-04-22T00:38:19;98447.45;;;13.50;31.21
45991;BME280;31721;41.740;-88.000;2023-04-22T00:40:47;98449.61;;;13.59;30.80
45991;BME280;31721;41.740;-88.000;2023-04-22T00:43:16;98445.72;;;13.39;30.76
45991;BME280;31721;41.740;-88.000;2023-04-22T00:45:44;98442.84;;;13.65;30.97
45991;BME280;31721;41.740;-88.000;2023-04-22T00:48:12;98447.33;;;13.26;30.54
45991;BME280;31721;41.740;-88.000;2023-04-22T00:50:40;98451.53;;;13.14;30.23
45991;BME280;31721;41.740;-88.000;2023-04-22T00:53:09;98454.37;;;13.16;30.29
45991;BME280;31721;41.740;-88.000;2023-04-22T00:55:36;98449.76;;;12.90;30.33
45991;BME280;31721;41.740;-88.000;2023-04-22T00:58:05;98453.26;;;12.99;31.17
45991;BME280;31721;41.740;-88.000;2023-04-22T01:00:34;98446.35;;;12.85;30.59
45991;BME280;31721;41.740;-88.000;2023-04-22T01:03:11;98447.82;;;12.89;30.66
45991;BME280;31721;41.740;-88.000;2023-04-22T01:05:40;98455.72;;;13.03;31.01
45991;BME280;31721;41.740;-88.000;2023-04-22T01:08:08;98452.81;;;13.04;30.73
45991;BME280;31721;41.740;-88.000;2023-04-22T01:10:36;98460.28;;;12.99;31.16
45991;BME280;31721;41.740;-88.000;2023-04-22T01:13:04;98455.77;;;13.07;30.75
45991;BME280;31721;41.740;-88.000;2023-04-22T01:15:32;98457.45;;;12.65;30.84
45991;BME280;31721;41.740;-88.000;2023-04-22T01:18:01;98461.53;;;12.35;32.15
45991;BME280;31721;41.740;-88.000;2023-04-22T01:20:30;98464.55;;;12.64;30.91
45991;BME280;31721;41.740;-88.000;2023-04-22T01:23:02;98464.85;;;12.33;31.11
45991;BME280;31721;41.740;-88.000;2023-04-22T01:25:31;98465.57;;;11.82;31.22
45991;BME280;31721;41.740;-88.000;2023-04-22T01:27:59;98469.23;;;11.77;31.11
45991;BME280;31721;41.740;-88.000;2023-04-22T01:30:27;98470.39;;;11.49;31.49
45991;BME280;31721;41.740;-88.000;2023-04-22T01:32:55;98478.00;;;11.29;32.22
45991;BME280;31721;41.740;-88.000;2023-04-22T01:35:24;98483.76;;;11.51;31.89
45991;BME280;31721;41.740;-88.000;2023-04-22T01:37:52;98481.95;;;11.29;31.73
45991;BME280;31721;41.740;-88.000;2023-04-22T01:40:20;98487.61;;;11.36;31.95
45991;BME280;31721;41.740;-88.000;2023-04-22T01:42:50;98493.40;;;11.44;31.34
45991;BME280;31721;41.740;-88.000;2023-04-22T01:45:18;98499.36;;;11.08;31.68
45991;BME280;31721;41.740;-88.000;2023-04-22T01:47:46;98501.03;;;11.15;31.57
45991;BME280;31721;41.740;-88.000;2023-04-22T01:50:14;98503.59;;;11.19;31.86
45991;BME280;31721;41.740;-88.000;2023-04-22T01:52:43;98500.76;;;11.07;32.63
45991;BME280;31721;41.740;-88.000;2023-04-22T01:55:12;98504.53;;;11.14;31.91
45991;BME280;31721;41.740;-88.000;2023-04-22T01:57:40;98497.59;;;11.12;32.32
45991;BME280;31721;41.740;-88.000;2023-04-22T02:00:09;98505.31;;;10.95;32.23
45991;BME280;31721;41.740;-88.000;2023-04-22T02:02:38;98503.04;;;10.82;32.21
45991;BME280;31721;41.740;-88.000;2023-04-22T02:05:06;98502.73;;;10.90;32.31
45991;BME280;31721;41.740;-88.000;2023-04-22T02:07:35;98499.09;;;10.51;33.67
45991;BME280;31721;41.740;-88.000;2023-04-22T02:10:03;98499.27;;;10.75;32.53
45991;BME280;31721;41.740;-88.000;2023-04-22T02:12:31;98504.84;;;10.28;33.25
45991;BME280;31721;41.740;-88.000;2023-04-22T02:14:59;98501.77;;;10.49;32.73
45991;BME280;31721;41.740;-88.000;2023-04-22T02:17:27;98503.80;;;10.63;32.75
45991;BME280;31721;41.740;-88.000;2023-04-22T02:19:56;98508.26;;;10.52;32.48
45991;BME280;31721;41.740;-88.000;2023-04-22T02:22:24;98509.15;;;10.63;33.25
45991;BME280;31721;41.740;-88.000;2023-04-22T02:24:52;98521.07;;;10.58;32.75
45991;BME280;31721;41.740;-88.000;2023-04-22T02:27:20;98521.35;;;10.81;33.04
45991;BME280;31721;41.740;-88.000;2023-04-22T02:29:49;98520.25;;;10.67;33.06
45991;BME280;31721;41.740;-88.000;2023-04-22T02:32:17;98524.26;;;10.57;33.12
45991;BME280;31721;41.740;-88.000;2023-04-22T02:34:46;98520.47;;;10.50;32.83
45991;BME280;31721;41.740;-88.000;2023-04-22T02:37:15;98524.98;;;10.60;33.38
45991;BME280;31721;41.740;-88.000;2023-04-22T02:39:43;98532.37;;;10.66;33.00
45991;BME280;31721;41.740;-88.000;2023-04-22T02:42:11;98530.97;;;10.69;32.69
45991;BME280;31721;41.740;-88.000;2023-04-22T02:44:38;98525.57;;;10.69;32.80
45991;BME280;31721;41.740;-88.000;2023-04-22T02:47:07;98521.50;;;10.63;33.11
45991;BME280;31721;41.740;-88.000;2023-04-22T02:49:36;98523.00;;;10.72;32.87
45991;BME280;31721;41.740;-88.000;2023-04-22T02:52:04;98529.36;;;10.60;32.79
45991;BME280;31721;41.740;-88.000;2023-04-22T02:54:32;98525.36;;;10.62;32.99
45991;BME280;31721;41.740;-88.000;2023-04-22T02:57:01;98515.31;;;10.47;32.78
45991;BME280;31721;41.740;-88.000;2023-04-22T02:59:29;98512.66;;;10.59;33.56
45991;BME280;31721;41.740;-88.000;2023-04-22T03:01:58;98518.94;;;10.63;33.29
45991;BME280;31721;41.740;-88.000;2023-04-22T03:04:26;98514.20;;;10.43;33.09
45991;BME280;31721;41.740;-88.000;2023-04-22T03:06:54;98511.60;;;10.43;33.04
45991;BME280;31721;41.740;-88.000;2023-04-22T03:09:23;98513.35;;;10.41;33.22
45991;BME280;31721;41.740;-88.000;2023-04-22T03:11:50;98520.21;;;10.41;32.88
45991;BME280;31721;41.740;-88.000;2023-04-22T03:14:19;98523.43;;;10.50;33.20
45991;BME280;31721;41.740;-88.000;2023-04-22T03:16:47;98524.24;;;10.47;33.00
45991;BME280;31721;41.740;-88.000;2023-04-22T03:19:15;98523.24;;;10.37;33.11
45991;BME280;31721;41.740;-88.000;2023-04-22T03:21:43;98513.20;;;10.16;33.24
45991;BME280;31721;41.740;-88.000;2023-04-22T03:24:11;98509.22;;;10.13;33.43
45991;BME280;31721;41.740;-88.000;2023-04-22T03:26:40;98504.97;;;9.91;33.31
45991;BME280;31721;41.740;-88.000;2023-04-22T03:29:08;98502.45;;;9.67;33.83
45991;BME280;31721;41.740;-88.000;2023-04-22T03:31:36;98509.17;;;9.59;33.77
45991;BME280;31721;41.740;-88.000;2023-04-22T03:34:04;98495.13;;;9.82;33.68
45991;BME280;31721;41.740;-88.000;2023-04-22T03:36:32;98492.71;;;9.58;33.76
45991;BME280;31721;41.740;-88.000;2023-04-22T03:39:01;98491.92;;;9.74;34.25
45991;BME280;31721;41.740;-88.000;2023-04-22T03:41:29;98492.69;;;9.65;34.36
45991;BME280;31721;41.740;-88.000;2023-04-22T03:43:56;98492.32;;;9.84;33.75
45991;BME280;31721;41.740;-88.000;2023-04-22T03:46:25;98498.70;;;9.71;33.84
45991;BME280;31721;41.740;-88.000;2023-04-22T03:48:55;98494.22;;;9.77;34.04
45991;BME280;31721;41.740;-88.000;2023-04-22T03:51:22;98494.34;;;9.74;34.19
45991;BME280;31721;41.740;-88.000;2023-04-22T03:53:51;98486.64;;;9.30;34.15
45991;BME280;31721;41.740;-88.000;2023-04-22T03:56:19;98488.85;;;9.49;33.83
45991;BME280;31721;41.740;-88.000;2023-04-22T03:58:48;98491.33;;;9.56;34.66
45991;BME280;31721;41.740;-88.000;2023-04-22T04:01:16;98502.94;;;9.58;34.44
45991;BME280;31721;41.740;-88.000;2023-04-22T04:03:44;98504.26;;;9.74;34.46
45991;BME280;31721;41.740;-88.000;2023-04-22T04:06:12;98501.21;;;9.69;34.43
45991;BME280;31721;41.740;-88.000;2023-04-22T04:08:41;98503.80;;;9.77;34.58
45991;BME280;31721;41.740;-88.000;2023-04-22T04:11:09;98497.33;;;9.73;34.66
45991;BME280;31721;41.740;-88.000;2023-04-22T04:13:37;98496.44;;;9.78;34.06
45991;BME280;31721;41.740;-88.000;2023-04-22T04:16:06;98491.32;;;9.80;34.56
45991;BME280;31721;41.740;-88.000;2023-04-22T04:18:34;98493.24;;;9.80;34.48
45991;BME280;31721;41.740;-88.000;2023-04-22T04:21:02;98483.28;;;9.84;34.88
45991;BME280;31721;41.740;-88.000;2023-04-22T04:23:30;98471.64;;;9.63;34.54
45991;BME280;31721;41.740;-88.000;2023-04-22T04:26:00;98473.95;;;9.69;34.77
45991;BME280;31721;41.740;-88.000;2023-04-22T04:28:28;98478.95;;;9.47;34.44
45991;BME280;31721;41.740;-88.000;2023-04-22T04:30:56;98479.46;;;9.48;34.38
45991;BME280;31721;41.740;-88.000;2023-04-22T04:33:23;98479.48;;;9.65;34.54
45991;BME280;31721;41.740;-88.000;2023-04-22T04:35:51;98494.28;;;9.41;34.56
45991;BME280;31721;41.740;-88.000;2023-04-22T04:38:19;98495.39;;;9.39;34.61
45991;BME280;31721;41.740;-88.000;2023-04-22T04:40:49;98494.68;;;9.40;34.84
45991;BME280;31721;41.740;-88.000;2023-04-22T04:43:17;98491.85;;;9.43;35.02
45991;BME280;31721;41.740;-88.000;2023-04-22T04:45:45;98493.86;;;9.44;35.18
45991;BME280;31721;41.740;-88.000;2023-04-22T04:48:14;98498.39;;;9.45;35.09
45991;BME280;31721;41.740;-88.000;2023-04-22T04:50:43;98506.94;;;9.44;34.85
45991;BME280;31721;41.740;-88.000;2023-04-22T04:53:11;98494.62;;;9.43;34.89
45991;BME280;31721;41.740;-88.000;2023-04-22T04:55:40;98481.58;;;9.37;35.13
45991;BME280;31721;41.740;-88.000;2023-04-22T04:58:08;98493.12;;;9.32;35.05
45991;BME280;31721;41.740;-88.000;2023-04-22T05:00:36;98491.60;;;9.53;35.43
45991;BME280;31721;41.740;-88.000;2023-04-22T05:03:04;98479.26;;;9.40;34.98
45991;BME280;31721;41.740;-88.000;2023-04-22T05:05:31;98478.00;;;9.08;34.86
45991;BME280;31721;41.740;-88.000;2023-04-22T05:07:59;98492.68;;;9.17;35.46
45991;BME280;31721;41.740;-88.000;2023-04-22T05:10:27;98487.09;;;9.33;35.54
45991;BME280;31721;41.740;-88.000;2023-04-22T05:12:55;98493.85;;;9.21;35.71
45991;BME280;31721;41.740;-88.000;2023-04-22T05:15:23;98493.72;;;9.09;35.84
45991;BME280;31721;41.740;-88.000;2023-04-22T05:17:52;98498.03;;;9.09;36.04
45991;BME280;31721;41.740;-88.000;2023-04-22T05:20:21;98503.86;;;9.17;35.93
45991;BME280;31721;41.740;-88.000;2023-04-22T05:22:49;98494.72;;;9.03;35.99
45991;BME280;31721;41.740;-88.000;2023-04-22T05:25:17;98493.14;;;9.01;36.09
45991;BME280;31721;41.740;-88.000;2023-04-22T05:27:45;98494.83;;;8.90;36.15
45991;BME280;31721;41.740;-88.000;2023-04-22T05:30:13;98496.95;;;8.82;36.16
45991;BME280;31721;41.740;-88.000;2023-04-22T05:32:41;98496.25;;;8.78;36.01
45991;BME280;31721;41.740;-88.000;2023-04-22T05:35:09;98497.43;;;8.94;36.38
45991;BME280;31721;41.740;-88.000;2023-04-22T05:37:36;98496.64;;;8.75;36.04
45991;BME280;31721;41.740;-88.000;2023-04-22T05:40:05;98500.47;;;8.80;36.60
45991;BME280;31721;41.740;-88.000;2023-04-22T05:42:33;98505.03;;;8.73;36.49
45991;BME280;31721;41.740;-88.000;2023-04-22T05:45:01;98498.23;;;8.75;36.60
45991;BME280;31721;41.740;-88.000;2023-04-22T05:47:29;98491.39;;;8.59;36.64
45991;BME280;31721;41.740;-88.000;2023-04-22T05:49:56;98485.18;;;8.69;37.01
45991;BME280;31721;41.740;-88.000;2023-04-22T05:52:25;98479.10;;;8.68;36.85
45991;BME280;31721;41.740;-88.000;2023-04-22T05:54:53;98477.58;;;8.73;37.15
45991;BME280;31721;41.740;-88.000;2023-04-22T05:57:21;98486.66;;;8.64;36.68
45991;BME280;31721;41.740;-88.000;2023-04-22T05:59:48;98486.62;;;8.70;37.02
45991;BME280;31721;41.740;-88.000;2023-04-22T06:02:17;98482.08;;;8.71;36.88
45991;BME280;31721;41.740;-88.000;2023-04-22T06:04:44;98485.69;;;8.70;36.84
45991;BME280;31721;41.740;-88.000;2023-04-22T06:07:12;98485.69;;;8.59;36.83
45991;BME280;31721;41.740;-88.000;2023-04-22T06:09:40;98481.92;;;8.61;37.02
45991;BME280;31721;41.740;-88.000;2023-04-22T06:12:09;98477.57;;;8.53;37.15
45991;BME280;31721;41.740;-88.000;2023-04-22T06:14:36;98476.22;;;8.56;37.21
45991;BME280;31721;41.740;-88.000;2023-04-22T06:17:04;98482.47;;;8.58;37.47
45991;BME280;31721;41.740;-88.000;2023-04-22T06:19:32;98480.75;;;8.59;37.56
45991;BME280;31721;41.740;-88.000;2023-04-22T06:22:00;98479.28;;;8.56;37.43
45991;BME280;31721;41.740;-88.000;2023-04-22T06:24:27;98475.19;;;8.53;37.36
45991;BME280;31721;41.740;-88.000;2023-04-22T06:26:55;98472.26;;;8.55;37.60
45991;BME280;31721;41.740;-88.000;2023-04-22T06:29:23;98467.26;;;8.53;37.39
45991;BME280;31721;41.740;-88.000;2023-04-22T06:31:50;98463.86;;;8.53;37.45
45991;BME280;31721;41.740;-88.000;2023-04-22T06:34:18;98462.06;;;8.42;37.51
45991;BME280;31721;41.740;-88.000;2023-04-22T06:36:46;98461.89;;;8.48;37.89
45991;BME280;31721;41.740;-88.000;2023-04-22T06:39:14;98459.11;;;8.60;37.49
45991;BME280;31721;41.740;-88.000;2023-04-22T06:41:41;98453.31;;;8.49;37.50
45991;BME280;31721;41.740;-88.000;2023-04-22T06:44:10;98452.75;;;8.62;37.45
45991;BME280;31721;41.740;-88.000;2023-04-22T06:46:37;98456.79;;;8.71;37.17
45991;BME280;31721;41.740;-88.000;2023-04-22T06:49:06;98450.33;;;8.86;36.91
45991;BME280;31721;41.740;-88.000;2023-04-22T06:51:34;98446.02;;;8.79;36.64
45991;BME280;31721;41.740;-88.000;2023-04-22T06:54:02;98446.79;;;8.73;36.53
45991;BME280;31721;41.740;-88.000;2023-04-22T06:56:30;98445.13;;;8.66;36.44
45991;BME280;31721;41.740;-88.000;2023-04-22T06:58:57;98442.71;;;8.45;36.49
45991;BME280;31721;41.740;-88.000;2023-04-22T07:01:25;98442.11;;;8.31;36.34
45991;BME280;31721;41.740;-88.000;2023-04-22T07:03:52;98438.39;;;8.28;36.78
45991;BME280;31721;41.740;-88.000;2023-04-22T07:06:20;98433.81;;;8.22;36.88
45991;BME280;31721;41.740;-88.000;2023-04-22T07:08:48;98425.58;;;8.03;36.89
45991;BME280;31721;41.740;-88.000;2023-04-22T07:11:16;98422.93;;;7.97;36.89
45991;BME280;31721;41.740;-88.000;2023-04-22T07:13:43;98415.25;;;7.91;37.05
45991;BME280;31721;41.740;-88.000;2023-04-22T07:16:12;98414.07;;;7.84;37.17
45991;BME280;31721;41.740;-88.000;2023-04-22T07:18:40;98414.23;;;7.75;37.36
45991;BME280;31721;41.740;-88.000;2023-04-22T07:21:08;98416.88;;;7.75;37.14
45991;BME280;31721;41.740;-88.000;2023-04-22T07:23:36;98415.08;;;7.86;37.21
45991;BME280;31721;41.740;-88.000;2023-04-22T07:26:04;98417.05;;;7.82;37.27
45991;BME280;31721;41.740;-88.000;2023-04-22T07:28:31;98412.92;;;7.82;37.05
45991;BME280;31721;41.740;-88.000;2023-04-22T07:31:00;98406.36;;;7.66;37.20
45991;BME280;31721;41.740;-88.000;2023-04-22T07:33:28;98405.12;;;7.67;37.39
45991;BME280;31721;41.740;-88.000;2023-04-22T07:35:56;98405.56;;;7.72;37.48
45991;BME280;31721;41.740;-88.000;2023-04-22T07:38:25;98404.64;;;7.82;37.47
45991;BME280;31721;41.740;-88.000;2023-04-22T07:40:52;98400.38;;;7.66;37.59
45991;BME280;31721;41.740;-88.000;2023-04-22T07:43:20;98401.42;;;7.85;37.31
45991;BME280;31721;41.740;-88.000;2023-04-22T07:45:49;98401.74;;;7.71;37.54
45991;BME280;31721;41.740;-88.000;2023-04-22T07:48:16;98399.55;;;7.71;37.35
45991;BME280;31721;41.740;-88.000;2023-04-22T07:50:45;98401.60;;;7.72;37.53
45991;BME280;31721;41.740;-88.000;2023-04-22T07:53:13;98404.98;;;7.62;37.55
45991;BME280;31721;41.740;-88.000;2023-04-22T07:55:41;98405.00;;;7.53;37.56
45991;BME280;31721;41.740;-88.000;2023-04-22T07:58:09;98409.35;;;7.49;37.56
45991;BME280;31721;41.740;-88.000;2023-04-22T08:00:36;98411.44;;;7.40;37.90
45991;BME280;31721;41.740;-88.000;2023-04-22T08:03:05;98409.98;;;7.33;37.93
45991;BME280;31721;41.740;-88.000;2023-04-22T08:05:33;98412.81;;;7.25;38.37
45991;BME280;31721;41.740;-88.000;2023-04-22T08:08:01;98411.52;;;7.36;38.48
45991;BME280;31721;41.740;-88.000;2023-04-22T08:10:29;98410.29;;;7.36;38.56
45991;BME280;31721;41.740;-88.000;2023-04-22T08:12:57;98408.55;;;7.19;38.85
45991;BME280;31721;41.740;-88.000;2023-04-22T08:15:25;98410.84;;;7.25;38.59
45991;BME280;31721;41.740;-88.000;2023-04-22T08:17:53;98406.65;;;7.17;38.65
45991;BME280;31721;41.740;-88.000;2023-04-22T08:20:21;98401.76;;;7.04;38.90
45991;BME280;31721;41.740;-88.000;2023-04-22T08:22:50;98401.46;;;7.01;38.75
45991;BME280;31721;41.740;-88.000;2023-04-22T08:25:18;98401.98;;;7.23;39.16
45991;BME280;31721;41.740;-88.000;2023-04-22T08:27:46;98406.68;;;7.03;38.90
45991;BME280;31721;41.740;-88.000;2023-04-22T08:30:14;98405.40;;;7.04;39.33
45991;BME280;31721;41.740;-88.000;2023-04-22T08:32:42;98398.75;;;6.73;39.07
45991;BME280;31721;41.740;-88.000;2023-04-22T08:35:10;98397.52;;;6.67;39.36
45991;BME280;31721;41.740;-88.000;2023-04-22T08:37:39;98394.85;;;6.84;39.79
45991;BME280;31721;41.740;-88.000;2023-04-22T08:40:08;98395.78;;;6.91;39.60
45991;BME280;31721;41.740;-88.000;2023-04-22T08:42:37;98397.69;;;6.96;39.61
45991;BME280;31721;41.740;-88.000;2023-04-22T08:45:05;98398.61;;;6.87;39.69
45991;BME280;31721;41.740;-88.000;2023-04-22T08:47:34;98399.36;;;6.95;39.86
45991;BME280;31721;41.740;-88.000;2023-04-22T08:50:05;98401.34;;;6.86;40.09
45991;BME280;31721;41.740;-88.000;2023-04-22T08:52:32;98404.66;;;6.71;39.90
45991;BME280;31721;41.740;-88.000;2023-04-22T08:55:01;98404.66;;;6.73;40.32
45991;BME280;31721;41.740;-88.000;2023-04-22T08:57:29;98402.16;;;6.81;40.43
45991;BME280;31721;41.740;-88.000;2023-04-22T08:59:58;98397.05;;;6.71;40.60
45991;BME280;31721;41.740;-88.000;2023-04-22T09:02:26;98394.99;;;6.95;40.93
45991;BME280;31721;41.740;-88.000;2023-04-22T09:04:56;98389.20;;;6.84;40.41
45991;BME280;31721;41.740;-88.000;2023-04-22T09:07:26;98387.39;;;7.32;40.59
45991;BME280;31721;41.740;-88.000;2023-04-22T09:09:54;98379.23;;;6.99;40.76
45991;BME280;31721;41.740;-88.000;2023-04-22T09:12:23;98376.36;;;6.99;40.81
45991;BME280;31721;41.740;-88.000;2023-04-22T09:14:52;98377.41;;;6.75;40.70
45991;BME280;31721;41.740;-88.000;2023-04-22T09:17:30;98380.35;;;6.86;40.99
45991;BME280;31721;41.740;-88.000;2023-04-22T09:19:59;98382.65;;;6.83;41.04
45991;BME280;31721;41.740;-88.000;2023-04-22T09:22:28;98383.61;;;6.90;41.15
45991;BME280;31721;41.740;-88.000;2023-04-22T09:25:03;98383.10;;;6.83;40.85
45991;BME280;31721;41.740;-88.000;2023-04-22T09:27:31;98380.74;;;6.73;41.26
45991;BME280;31721;41.740;-88.000;2023-04-22T09:30:08;98378.86;;;6.87;41.02
45991;BME280;31721;41.740;-88.000;2023-04-22T09:32:36;98378.50;;;6.97;40.67
45991;BME280;31721;41.740;-88.000;2023-04-22T09:35:04;98381.55;;;6.73;41.19
45991;BME280;31721;41.740;-88.000;2023-04-22T09:37:32;98380.06;;;6.77;41.17
45991;BME280;31721;41.740;-88.000;2023-04-22T09:39:59;98380.38;;;6.80;41.37
45991;BME280;31721;41.740;-88.000;2023-04-22T09:42:27;98381.71;;;6.65;41.75
45991;BME280;31721;41.740;-88.000;2023-04-22T09:44:56;98378.66;;;6.68;41.47
45991;BME280;31721;41.740;-88.000;2023-04-22T09:47:25;98378.17;;;6.80;41.68
45991;BME280;31721;41.740;-88.000;2023-04-22T09:50:03;98374.81;;;6.81;41.43
45991;BME280;31721;41.740;-88.000;2023-04-22T09:52:32;98374.56;;;6.89;41.16
45991;BME280;31721;41.740;-88.000;2023-04-22T09:54:59;98370.47;;;6.76;41.16
45991;BME280;31721;41.740;-88.000;2023-04-22T09:57:27;98372.29;;;6.57;41.30
45991;BME280;31721;41.740;-88.000;2023-04-22T09:59:58;98369.34;;;6.63;41.14
45991;BME280;31721;41.740;-88.000;2023-04-22T10:02:29;98370.95;;;6.40;41.12
45991;BME280;31721;41.740;-88.000;2023-04-22T10:04:57;98371.43;;;6.43;41.54
45991;BME280;31721;41.740;-88.000;2023-04-22T10:07:26;98369.07;;;6.33;41.66
45991;BME280;31721;41.740;-88.000;2023-04-22T10:09:53;98365.91;;;6.34;41.63
45991;BME280;31721;41.740;-88.000;2023-04-22T10:12:21;98368.47;;;6.33;41.59
45991;BME280;31721;41.740;-88.000;2023-04-22T10:14:49;98370.06;;;6.52;41.51
45991;BME280;31721;41.740;-88.000;2023-04-22T10:17:18;98373.77;;;6.43;41.77
45991;BME280;31721;41.740;-88.000;2023-04-22T10:19:47;98371.29;;;6.33;41.75
45991;BME280;31721;41.740;-88.000;2023-04-22T10:22:15;98363.53;;;6.31;41.60
45991;BME280;31721;41.740;-88.000;2023-04-22T10:24:46;98361.90;;;6.31;41.61
45991;BME280;31721;41.740;-88.000;2023-04-22T10:27:20;98361.26;;;6.30;41.86
45991;BME280;31721;41.740;-88.000;2023-04-22T10:29:49;98361.25;;;6.27;41.69
45991;BME280;31721;41.740;-88.000;2023-04-22T10:32:26;98356.05;;;6.18;41.76
45991;BME280;31721;41.740;-88.000;2023-04-22T10:35:12;98351.46;;;6.28;41.71
45991;BME280;31721;41.740;-88.000;2023-04-22T10:37:43;98352.90;;;6.45;41.87
45991;BME280;31721;41.740;-88.000;2023-04-22T10:40:13;98349.68;;;6.69;41.46
45991;BME280;31721;41.740;-88.000;2023-04-22T10:42:45;98352.02;;;6.56;41.59
45991;BME280;31721;41.740;-88.000;2023-04-22T10:45:14;98355.29;;;6.61;41.63
45991;BME280;31721;41.740;-88.000;2023-04-22T10:47:42;98357.79;;;6.57;41.45
45991;BME280;31721;41.740;-88.000;2023-04-22T10:50:19;98357.62;;;6.36;41.72
45991;BME280;31721;41.740;-88.000;2023-04-22T10:52:49;98357.08;;;6.52;41.55
45991;BME280;31721;41.740;-88.000;2023-04-22T10:55:18;98353.36;;;6.46;41.44
45991;BME280;31721;41.740;-88.000;2023-04-22T10:57:47;98349.81;;;6.18;41.39
45991;BME280;31721;41.740;-88.000;2023-04-22T11:00:19;98351.18;;;6.13;41.53
45991;BME280;31721;41.740;-88.000;2023-04-22T11:02:52;98356.14;;;6.22;41.80
45991;BME280;31721;41.740;-88.000;2023-04-22T11:05:23;98358.77;;;6.24;41.89
45991;BME280;31721;41.740;-88.000;2023-04-22T11:07:53;98356.35;;;6.18;42.24
45991;BME280;31721;41.740;-88.000;2023-04-22T11:10:39;98354.92;;;6.18;41.86
45991;BME280;31721;41.740;-88.000;2023-04-22T11:13:07;98349.06;;;6.03;42.40
45991;BME280;31721;41.740;-88.000;2023-04-22T11:15:37;98347.43;;;6.05;42.22
45991;BME280;31721;41.740;-88.000;2023-04-22T11:18:09;98347.15;;;6.05;42.42
45991;BME280;31721;41.740;-88.000;2023-04-22T11:20:38;98347.94;;;6.08;42.62
45991;BME280;31721;41.740;-88.000;2023-04-22T11:23:06;98351.31;;;6.12;42.81
45991;BME280;31721;41.740;-88.000;2023-04-22T11:25:34;98349.49;;;6.16;42.76
45991;BME280;31721;41.740;-88.000;2023-04-22T11:28:02;98348.04;;;6.42;42.40
45991;BME280;31721;41.740;-88.000;2023-04-22T11:30:30;98346.06;;;6.32;42.41
45991;BME280;31721;41.740;-88.000;2023-04-22T11:32:59;98342.51;;;6.17;42.62
45991;BME280;31721;41.740;-88.000;2023-04-22T11:35:29;98339.82;;;6.23;42.97
45991;BME280;31721;41.740;-88.000;2023-04-22T11:38:00;98341.80;;;6.28;43.25
45991;BME280;31721;41.740;-88.000;2023-04-22T11:40:30;98343.12;;;6.21;42.75
45991;BME280;31721;41.740;-88.000;2023-04-22T11:43:01;98344.66;;;6.37;42.50
45991;BME280;31721;41.740;-88.000;2023-04-22T11:45:30;98347.78;;;6.45;42.80
45991;BME280;31721;41.740;-88.000;2023-04-22T11:47:59;98351.73;;;6.44;42.75
45991;BME280;31721;41.740;-88.000;2023-04-22T11:50:29;98352.88;;;6.49;42.91
45991;BME280;31721;41.740;-88.000;2023-04-22T11:52:59;98350.75;;;6.50;42.61
45991;BME280;31721;41.740;-88.000;2023-04-22T11:55:29;98352.39;;;6.58;42.47
45991;BME280;31721;41.740;-88.000;2023-04-22T11:57:59;98351.77;;;6.44;42.71
45991;BME280;31721;41.740;-88.000;2023-04-22T12:00:29;98353.00;;;6.46;42.65
45991;BME280;31721;41.740;-88.000;2023-04-22T12:02:59;98353.58;;;6.53;42.68
45991;BME280;31721;41.740;-88.000;2023-04-22T12:05:36;98356.46;;;6.54;42.29
45991;BME280;31721;41.740;-88.000;2023-04-22T12:08:07;98358.04;;;6.99;41.61
45991;BME280;31721;41.740;-88.000;2023-04-22T12:10:39;98358.92;;;6.72;41.81
45991;BME280;31721;41.740;-88.000;2023-04-22T12:13:07;98360.90;;;6.51;41.86
45991;BME280;31721;41.740;-88.000;2023-04-22T12:15:38;98358.56;;;6.21;41.91
45991;BME280;31721;41.740;-88.000;2023-04-22T12:18:07;98358.09;;;6.26;42.49
45991;BME280;31721;41.740;-88.000;2023-04-22T12:20:35;98355.85;;;6.16;42.87
45991;BME280;31721;41.740;-88.000;2023-04-22T12:23:03;98351.97;;;6.41;42.39
45991;BME280;31721;41.740;-88.000;2023-04-22T12:25:31;98356.83;;;6.36;42.87
45991;BME280;31721;41.740;-88.000;2023-04-22T12:28:00;98355.39;;;6.43;42.70
45991;BME280;31721;41.740;-88.000;2023-04-22T12:30:28;98358.49;;;6.73;42.41
45991;BME280;31721;41.740;-88.000;2023-04-22T12:32:56;98356.91;;;6.34;42.63
45991;BME280;31721;41.740;-88.000;2023-04-22T12:35:25;98355.93;;;6.22;42.65
45991;BME280;31721;41.740;-88.000;2023-04-22T12:37:52;98356.70;;;6.25;42.58
45991;BME280;31721;41.740;-88.000;2023-04-22T12:40:21;98352.06;;;6.46;43.28
45991;BME280;31721;41.740;-88.000;2023-04-22T12:42:48;98358.02;;;7.07;42.24
45991;BME280;31721;41.740;-88.000;2023-04-22T12:45:16;98357.46;;;6.80;42.48
45991;BME280;31721;41.740;-88.000;2023-04-22T12:47:44;98358.72;;;6.49;42.41
45991;BME280;31721;41.740;-88.000;2023-04-22T12:50:12;98356.39;;;6.32;42.88
45991;BME280;31721;41.740;-88.000;2023-04-22T12:52:39;98359.20;;;6.21;44.26
45991;BME280;31721;41.740;-88.000;2023-04-22T12:55:08;98358.91;;;5.93;44.09